KVTN/VTN METAR and TAF weather

Enter ICAO airport designator
Station Type Date Time Source
KVTN METAR 2018/12/15 19:52 UTC NOAA

KVTN 151952Z AUTO 23012KT 10SM CLR 08/M01 A2989 RMK AO2 SLP139 T00781011


Station Type Date Time Source
KVTN Decoded METAR 2018/12/15 19:52 UTC NOAA

MILLER FIELD - VALENTINE, NE, NE, United States (KVTN) 42-52N 100-33W 788M
Dec 15, 2018 - 02:52 PM EST / 2018.12.15 1952 UTC
Wind: from the SW (230 degrees) at 14 MPH (12 KT):0
Visibility: 10 mile(s):0
Sky conditions: clear
Temperature: 46.0 F (7.8 C)
Dew Point: 30.0 F (-1.1 C)
Relative Humidity: 53%
Pressure (altimeter): 29.89 in. Hg (1012 hPa)
ob: KVTN 151952Z AUTO 23012KT 10SM CLR 08/M01 A2989 RMK AO2 SLP139 T00781011
cycle: 20

Station Type Date Time Source
KVTN TAF 2018/12/15 18:22 UTC NOAA

TAF KVTN 151720Z 1518/1618 23015G25KT P6SM BKN250
FM152300 27015KT P6SM BKN250
FM160300 28005KT P6SM SCT250


Example: see airport list